Time;durP1;ratioP1;P1;durP2;ratioP2;P2;SDS_P1;SDS_P2;PMS_P1;PMS_P2;Temp;Humidity;BMP_temperature;BMP_pressure;BME280_temperature;BME280_humidity;BME280_pressure;Samples;Min_cycle;Max_cycle;Signal;HPM_P1;HPM_P2
2022/12/05 00:00:23;;;;;;;30.73;20.80;;;4.00;99.90;;;;;;5050333;28;20104;-54
2022/12/05 00:02:49;;;;;;;36.47;20.75;;;4.00;99.90;;;;;;5050058;28;20081;-54
2022/12/05 00:05:14;;;;;;;34.65;20.38;;;4.00;99.90;;;;;;5050137;28;20021;-55
2022/12/05 00:07:40;;;;;;;37.08;20.98;;;3.90;99.90;;;;;;5050125;28;20071;-49
2022/12/05 00:10:06;;;;;;;42.78;22.60;;;3.90;99.90;;;;;;5049907;28;20028;-55
2022/12/05 00:12:32;;;;;;;37.17;22.25;;;3.70;99.90;;;;;;5049880;28;20037;-54
2022/12/05 00:14:58;;;;;;;33.15;20.00;;;3.60;99.90;;;;;;5049869;28;20086;-49
2022/12/05 00:17:23;;;;;;;31.15;19.80;;;3.70;99.90;;;;;;5050001;28;20033;-50
2022/12/05 00:19:49;;;;;;;28.83;19.42;;;3.70;99.90;;;;;;5049994;28;20013;-51
2022/12/05 00:22:15;;;;;;;29.55;20.40;;;3.60;99.90;;;;;;5049803;28;20021;-50
2022/12/05 00:24:40;;;;;;;29.65;20.67;;;3.60;99.90;;;;;;5048764;28;20025;-50
2022/12/05 00:27:06;;;;;;;33.03;19.90;;;3.60;99.90;;;;;;5049731;28;20025;-52
2022/12/05 00:29:31;;;;;;;30.42;20.00;;;3.50;99.90;;;;;;5049357;28;20415;-53
2022/12/05 00:31:57;;;;;;;39.85;19.35;;;3.50;99.90;;;;;;5048598;28;20082;-51
2022/12/05 00:34:23;;;;;;;27.27;17.33;;;3.50;99.90;;;;;;5048392;28;20033;-48
2022/12/05 00:36:48;;;;;;;28.45;17.95;;;3.40;99.90;;;;;;5049581;28;20027;-52
2022/12/05 00:39:14;;;;;;;32.63;20.15;;;3.30;99.90;;;;;;5049647;28;20025;-51
2022/12/05 00:41:40;;;;;;;26.73;18.73;;;3.20;99.90;;;;;;5049660;28;20036;-52
2022/12/05 00:44:06;;;;;;;28.25;19.23;;;3.20;99.90;;;;;;5049357;28;20557;-51
2022/12/05 00:46:33;;;;;;;25.63;18.85;;;3.20;99.90;;;;;;5049445;28;20116;-52
2022/12/05 00:49:00;;;;;;;27.60;17.85;;;3.20;99.90;;;;;;5049583;28;20595;-52
2022/12/05 00:51:38;;;;;;;53.30;18.85;;;3.30;99.90;;;;;;5049670;28;20021;-53
2022/12/05 00:54:07;;;;;;;25.95;17.42;;;3.10;99.90;;;;;;5049432;28;20025;-49
2022/12/05 00:56:34;;;;;;;31.67;18.13;;;3.20;99.90;;;;;;5049228;28;20065;-49
2022/12/05 00:59:01;;;;;;;27.20;18.35;;;3.20;99.90;;;;;;5049266;28;20108;-48
2022/12/05 01:01:33;;;;;;;46.67;18.58;;;3.10;99.90;;;;;;5049374;28;20057;-50
2022/12/05 01:04:02;;;;;;;28.63;18.97;;;3.00;99.90;;;;;;5049183;28;20013;-51
2022/12/05 01:06:28;;;;;;;29.52;18.08;;;3.00;99.90;;;;;;5049266;28;20112;-55
2022/12/05 01:08:56;;;;;;;25.38;17.48;;;3.00;99.90;;;;;;5049024;28;20076;-52
2022/12/05 01:11:22;;;;;;;26.40;17.80;;;3.10;99.90;;;;;;5048980;28;20041;-50
2022/12/05 01:13:49;;;;;;;26.13;17.50;;;3.10;99.90;;;;;;5049142;28;20036;-52
2022/12/05 01:16:35;;;;;;;24.58;17.25;;;3.20;99.90;;;;;;5048988;28;20391;-50
2022/12/05 01:19:22;;;;;;;30.30;18.90;;;3.20;99.90;;;;;;5049006;28;20021;-53
2022/12/05 01:21:48;;;;;;;25.45;16.52;;;3.20;99.90;;;;;;5048773;28;20028;-52
2022/12/05 01:24:15;;;;;;;30.02;17.88;;;3.20;99.90;;;;;;5048961;28;20025;-50
2022/12/05 01:26:42;;;;;;;25.52;17.90;;;3.10;99.90;;;;;;5049110;28;20024;-52
2022/12/05 01:29:08;;;;;;;44.83;18.77;;;3.10;99.90;;;;;;5048676;28;20033;-49
2022/12/05 01:31:36;;;;;;;29.83;17.10;;;3.10;99.90;;;;;;5048929;28;20115;-49
2022/12/05 01:34:05;;;;;;;27.17;17.42;;;3.10;99.90;;;;;;5048763;28;20044;-49
2022/12/05 01:36:31;;;;;;;27.42;18.42;;;3.10;99.90;;;;;;5048663;28;20478;-51
2022/12/05 01:38:56;;;;;;;37.35;19.10;;;3.00;99.90;;;;;;5047518;28;20119;-49
2022/12/05 01:41:27;;;;;;;34.30;18.00;;;3.00;99.90;;;;;;5048052;28;20025;-50
2022/12/05 01:43:58;;;;;;;33.53;15.65;;;3.00;99.90;;;;;;5048575;28;20025;-52
2022/12/05 01:46:25;;;;;;;27.27;16.63;;;3.00;99.90;;;;;;5048676;28;20029;-51
2022/12/05 01:48:57;;;;;;;25.65;15.98;;;3.00;99.90;;;;;;5047082;28;20032;-52
2022/12/05 01:51:23;;;;;;;51.53;16.88;;;3.00;99.90;;;;;;5048594;28;20125;-52
2022/12/05 01:53:49;;;;;;;44.92;16.50;;;2.90;99.90;;;;;;5047168;28;20025;-51
2022/12/05 01:56:15;;;;;;;32.05;16.63;;;2.90;99.90;;;;;;5048328;28;20535;-51
2022/12/05 01:58:43;;;;;;;40.72;17.60;;;2.90;99.90;;;;;;5048566;28;20082;-51
2022/12/05 02:01:12;;;;;;;45.47;18.45;;;2.80;99.90;;;;;;5048236;28;20028;-53
2022/12/05 02:03:39;;;;;;;26.92;16.95;;;2.80;99.90;;;;;;5048415;28;20025;-52
2022/12/05 02:06:05;;;;;;;48.83;17.98;;;2.70;99.90;;;;;;5048359;28;20531;-49
2022/12/05 02:08:31;;;;;;;66.75;18.50;;;2.70;99.90;;;;;;5048277;28;20033;-52
2022/12/05 02:10:57;;;;;;;74.25;19.60;;;2.70;99.90;;;;;;5048066;28;20049;-50
2022/12/05 02:13:49;;;;;;;32.25;17.13;;;2.70;99.90;;;;;;5047452;28;20456;-52
2022/12/05 02:16:48;;;;;;;64.65;18.13;;;2.80;99.90;;;;;;5016972;28;20053;-50
2022/12/05 02:19:38;;;;;;;25.38;16.10;;;2.80;99.90;;;;;;5048386;28;20045;-54
2022/12/05 02:22:35;;;;;;;72.57;17.42;;;2.80;99.90;;;;;;5048194;28;20103;-52
2022/12/05 02:25:19;;;;;;;63.15;16.85;;;2.80;99.90;;;;;;5048159;28;20364;-52
2022/12/05 02:28:16;;;;;;;29.65;16.83;;;2.80;99.90;;;;;;5048253;28;20029;-55
2022/12/05 02:31:20;;;;;;;29.95;16.55;;;2.80;99.90;;;;;;5048067;28;20021;-48
2022/12/05 02:34:09;;;;;;;37.85;15.70;;;2.80;99.90;;;;;;4986356;28;20030;-54
2022/12/05 02:36:53;;;;;;;39.63;17.48;;;2.80;99.90;;;;;;5044687;28;20037;-53
2022/12/05 02:39:48;;;;;;;67.78;17.45;;;2.80;99.90;;;;;;5047903;28;20055;-51
2022/12/05 02:42:31;;;;;;;26.02;16.35;;;2.70;99.90;;;;;;5047935;28;20441;-49
2022/12/05 02:45:08;;;;;;;66.30;16.30;;;2.80;99.90;;;;;;5047724;28;20069;-50
2022/12/05 02:47:39;;;;;;;51.08;15.82;;;2.80;99.90;;;;;;5047909;28;20060;-52
2022/12/05 02:50:07;;;;;;;85.78;19.15;;;2.80;99.90;;;;;;5047646;28;20032;-52
2022/12/05 02:52:34;;;;;;;93.28;19.27;;;2.80;99.90;;;;;;5047313;28;20510;-50
2022/12/05 02:55:01;;;;;;;39.80;17.65;;;2.80;99.90;;;;;;5049510;28;20029;-50
2022/12/05 02:57:27;;;;;;;51.33;16.80;;;2.80;99.90;;;;;;5050560;28;20475;-52
2022/12/05 02:59:53;;;;;;;107.10;18.38;;;2.80;99.90;;;;;;5050707;28;20033;-54
2022/12/05 03:02:33;;;;;;;69.40;19.45;;;2.80;99.90;;;;;;5050167;28;20021;-52
2022/12/05 03:05:17;;;;;;;122.43;21.00;;;2.80;99.90;;;;;;5048802;28;20108;-48
2022/12/05 03:07:45;;;;;;;;;;;2.80;99.90;;;;;;5050863;28;20043;-53
2022/12/05 03:10:13;;;;;;;43.88;17.02;;;2.80;99.90;;;;;;5050361;28;19912;-53
2022/12/05 03:12:43;;;;;;;43.80;17.67;;;2.80;99.90;;;;;;5050805;28;20041;-49
2022/12/05 03:15:25;;;;;;;77.03;19.40;;;2.90;99.90;;;;;;5050663;28;20029;-54
2022/12/05 03:17:56;;;;;;;92.22;18.77;;;2.90;99.90;;;;;;5051024;28;20021;-52
2022/12/05 03:20:28;;;;;;;45.35;20.02;;;2.80;99.90;;;;;;5050988;28;20017;-55
2022/12/05 03:23:16;;;;;;;108.88;21.02;;;2.80;99.90;;;;;;5050654;28;20033;-53
2022/12/05 03:26:13;;;;;;;26.05;17.45;;;2.80;99.90;;;;;;5050799;28;20040;-53
2022/12/05 03:28:47;;;;;;;54.95;19.63;;;2.90;99.90;;;;;;5050826;28;20017;-54
2022/12/05 03:31:18;;;;;;;35.83;17.80;;;2.90;99.90;;;;;;5050522;28;20021;-52
2022/12/05 03:33:49;;;;;;;121.97;21.27;;;2.90;99.90;;;;;;5050761;28;20013;-54
2022/12/05 03:36:19;;;;;;;86.85;20.42;;;2.90;99.90;;;;;;5050608;28;20065;-55
2022/12/05 03:38:55;;;;;;;69.03;20.60;;;2.90;99.90;;;;;;5050644;28;20428;-50
2022/12/05 03:41:32;;;;;;;37.35;19.75;;;2.90;99.90;;;;;;5050463;28;20040;-51
2022/12/05 03:44:20;;;;;;;67.85;19.67;;;2.90;99.90;;;;;;5050533;28;20021;-52
2022/12/05 03:46:55;;;;;;;113.25;23.20;;;2.90;99.90;;;;;;5050698;28;20082;-50
2022/12/05 03:49:55;;;;;;;78.35;20.42;;;2.90;99.90;;;;;;5049397;28;20543;-53
2022/12/05 03:52:32;;;;;;;68.85;21.73;;;2.90;99.90;;;;;;5047280;28;20041;-54
2022/12/05 03:55:05;;;;;;;94.75;21.40;;;2.90;99.90;;;;;;5050306;28;20496;-52
2022/12/05 03:57:56;;;;;;;65.75;21.55;;;2.90;99.90;;;;;;5050393;28;20025;-53
2022/12/05 04:00:23;;;;;;;203.85;26.52;;;2.90;99.90;;;;;;5039344;28;20033;-54
2022/12/05 04:03:01;;;;;;;54.33;22.17;;;2.90;99.90;;;;;;5050182;28;20021;-53
2022/12/05 04:05:32;;;;;;;63.33;22.90;;;2.80;99.90;;;;;;5049911;28;20037;-54
2022/12/05 04:08:05;;;;;;;60.50;22.38;;;2.80;99.90;;;;;;5050225;28;20025;-53
2022/12/05 04:10:47;;;;;;;39.15;20.83;;;2.80;99.90;;;;;;5050101;28;20021;-54
2022/12/05 04:13:20;;;;;;;53.63;22.63;;;2.90;99.90;;;;;;5050188;28;20043;-54
2022/12/05 04:18:41;;;;;;;32.08;19.30;;;2.80;99.90;;;;;;5050541;28;20563;-50
2022/12/05 04:25:31;;;;;;;48.28;22.75;;;3.00;99.90;;;;;;5049891;28;20048;-54
2022/12/05 04:26:45;;;;;;;73.30;22.35;;;2.90;99.90;;;;;;5049756;28;20053;-51
2022/12/05 04:29:25;;;;;;;61.65;20.15;;;2.90;99.90;;;;;;5049737;28;20025;-52
2022/12/05 04:31:59;;;;;;;51.67;21.13;;;3.00;99.90;;;;;;5049793;28;20053;-54
2022/12/05 04:34:28;;;;;;;53.28;19.92;;;2.90;99.90;;;;;;5049913;28;20032;-53
2022/12/05 04:37:02;;;;;;;37.95;20.15;;;3.00;99.90;;;;;;5049518;28;20029;-54
2022/12/05 04:39:45;;;;;;;44.08;20.58;;;3.00;99.90;;;;;;5049759;28;20056;-50
2022/12/05 04:42:14;;;;;;;44.60;22.48;;;3.00;99.90;;;;;;5048361;28;20036;-52
2022/12/05 04:44:49;;;;;;;40.05;21.05;;;2.90;99.90;;;;;;5048395;28;20118;-53
2022/12/05 04:47:18;;;;;;;64.68;21.33;;;3.00;99.90;;;;;;5049753;28;20427;-50
2022/12/05 04:49:45;;;;;;;53.58;21.35;;;3.00;99.90;;;;;;5048260;28;20125;-49
2022/12/05 04:52:12;;;;;;;37.90;21.35;;;2.90;99.90;;;;;;5049422;28;20120;-54
2022/12/05 04:54:44;;;;;;;29.52;17.90;;;2.90;99.90;;;;;;5049507;28;20059;-51
2022/12/05 04:57:32;;;;;;;32.63;20.23;;;2.90;99.90;;;;;;5049491;28;20029;-55
2022/12/05 04:59:57;;;;;;;38.10;20.73;;;2.90;99.90;;;;;;5049439;28;20085;-53
2022/12/05 05:02:41;;;;;;;34.00;20.08;;;2.90;99.90;;;;;;5049394;28;20025;-54
2022/12/05 05:05:10;;;;;;;37.38;20.33;;;3.00;99.90;;;;;;5049329;28;20033;-53
2022/12/05 05:07:48;;;;;;;32.45;18.95;;;3.00;99.90;;;;;;5049264;28;20064;-51
2022/12/05 05:10:17;;;;;;;36.03;20.05;;;3.00;99.90;;;;;;5049362;28;20025;-52
2022/12/05 05:12:43;;;;;;;34.70;16.95;;;3.00;99.90;;;;;;5049376;28;20036;-53
2022/12/05 05:15:09;;;;;;;29.35;17.20;;;2.90;99.90;;;;;;5048643;28;20037;-52
2022/12/05 05:17:34;;;;;;;28.45;17.80;;;2.90;99.90;;;;;;5048190;28;20413;-51
2022/12/05 05:22:47;;;;;;;36.00;19.73;;;3.00;99.90;;;;;;5049070;28;20028;-55
2022/12/05 05:25:13;;;;;;;36.05;19.42;;;3.00;99.90;;;;;;5048914;28;20029;-53
2022/12/05 05:27:39;;;;;;;45.88;20.98;;;3.00;99.90;;;;;;5048876;28;20422;-51
2022/12/05 05:30:05;;;;;;;31.65;19.50;;;3.00;99.90;;;;;;5048828;28;20033;-54
2022/12/05 05:32:34;;;;;;;36.53;20.35;;;3.00;99.90;;;;;;5048763;28;20036;-54
2022/12/05 05:35:00;;;;;;;38.80;19.33;;;3.00;99.90;;;;;;5048685;28;20538;-53
2022/12/05 05:37:26;;;;;;;31.63;18.77;;;3.00;99.90;;;;;;5048785;28;20025;-53
2022/12/05 05:39:51;;;;;;;35.67;20.90;;;3.00;99.90;;;;;;5048581;28;20028;-50
2022/12/05 05:42:17;;;;;;;24.85;16.33;;;3.00;99.90;;;;;;5048564;28;20504;-50
2022/12/05 05:44:43;;;;;;;23.15;15.00;;;3.10;99.90;;;;;;5048832;28;20031;-52
2022/12/05 05:47:08;;;;;;;20.75;14.98;;;3.10;99.90;;;;;;5048509;28;20510;-52
2022/12/05 05:49:34;;;;;;;20.38;14.30;;;3.10;99.90;;;;;;5048551;28;20650;-53
2022/12/05 05:52:00;;;;;;;24.70;15.40;;;3.10;99.90;;;;;;5048456;28;20036;-54
2022/12/05 05:54:25;;;;;;;24.90;16.73;;;3.10;99.90;;;;;;5048459;28;20459;-52
2022/12/05 05:56:51;;;;;;;24.40;17.45;;;3.10;99.90;;;;;;5047032;28;20116;-52
2022/12/05 05:59:16;;;;;;;19.63;13.82;;;3.00;99.90;;;;;;5047862;28;20064;-53
2022/12/05 06:01:43;;;;;;;16.85;12.07;;;3.00;99.90;;;;;;5047471;28;20059;-54
2022/12/05 06:04:08;;;;;;;16.25;11.38;;;3.00;99.90;;;;;;5046995;28;20059;-52
2022/12/05 06:06:34;;;;;;;29.42;12.13;;;2.90;99.90;;;;;;5047382;28;20380;-50
2022/12/05 06:08:59;;;;;;;16.88;12.32;;;2.80;99.90;;;;;;5047070;28;20032;-53
2022/12/05 06:11:26;;;;;;;28.45;14.70;;;2.80;99.90;;;;;;5047062;28;20504;-51
2022/12/05 06:13:54;;;;;;;18.30;12.40;;;2.70;99.90;;;;;;5047098;28;20129;-52
2022/12/05 06:16:20;;;;;;;16.98;10.57;;;2.70;99.90;;;;;;5047323;28;20033;-50
2022/12/05 06:18:45;;;;;;;15.23;10.73;;;2.60;99.90;;;;;;5047302;28;20021;-53
2022/12/05 06:21:11;;;;;;;13.05;9.77;;;2.60;99.90;;;;;;5047017;28;20100;-50
2022/12/05 06:23:37;;;;;;;13.13;11.20;;;2.60;99.90;;;;;;5045842;28;20052;-50
2022/12/05 06:26:05;;;;;;;16.92;12.30;;;2.50;99.90;;;;;;5046770;28;20025;-50
2022/12/05 06:28:31;;;;;;;16.00;11.98;;;2.40;99.90;;;;;;5049120;28;20382;-51
2022/12/05 06:30:57;;;;;;;14.90;11.15;;;2.30;99.90;;;;;;5050463;28;20453;-51
2022/12/05 06:33:23;;;;;;;15.45;11.55;;;2.40;99.90;;;;;;5050710;28;20021;-51
2022/12/05 06:36:01;;;;;;;20.50;14.98;;;2.30;99.90;;;;;;5050408;28;20394;-52
2022/12/05 06:38:26;;;;;;;13.50;10.57;;;2.30;99.90;;;;;;5050422;28;20025;-49
2022/12/05 06:40:52;;;;;;;12.88;10.57;;;2.20;99.90;;;;;;5050394;28;20028;-51
2022/12/05 06:43:17;;;;;;;14.32;10.45;;;2.30;99.90;;;;;;5050449;28;20021;-52
2022/12/05 06:45:43;;;;;;;11.30;9.48;;;2.30;99.90;;;;;;5050491;28;20124;-50
2022/12/05 06:48:09;;;;;;;11.48;9.55;;;2.30;99.90;;;;;;5050300;28;20740;-51
2022/12/05 06:50:34;;;;;;;13.35;10.23;;;2.20;99.90;;;;;;5049232;28;20029;-52
2022/12/05 06:53:00;;;;;;;10.32;8.60;;;2.20;99.90;;;;;;5050204;28;20112;-51
2022/12/05 06:55:26;;;;;;;12.40;9.68;;;2.40;99.90;;;;;;5050163;28;20037;-51
2022/12/05 06:57:51;;;;;;;10.90;8.38;;;2.30;99.90;;;;;;5050102;28;20021;-52
2022/12/05 07:03:01;;;;;;;12.57;9.57;;;2.30;99.90;;;;;;5050146;28;20040;-49
2022/12/05 07:05:27;;;;;;;12.45;9.20;;;2.40;99.90;;;;;;5050199;28;20021;-52
2022/12/05 07:07:53;;;;;;;10.82;8.98;;;2.40;99.90;;;;;;5049881;28;20017;-53
2022/12/05 07:10:18;;;;;;;12.60;9.55;;;2.40;99.90;;;;;;5050021;28;20064;-50
2022/12/05 07:12:44;;;;;;;11.05;8.65;;;2.40;99.90;;;;;;5048759;28;20247;-52
2022/12/05 07:15:10;;;;;;;14.05;9.57;;;2.50;99.90;;;;;;5049875;28;20033;-52
2022/12/05 07:17:37;;;;;;;11.70;8.98;;;2.50;99.90;;;;;;5049991;28;20025;-52
2022/12/05 07:20:06;;;;;;;11.32;9.30;;;2.50;99.90;;;;;;5049757;28;20487;-55
2022/12/05 07:22:34;;;;;;;11.73;8.57;;;2.50;99.90;;;;;;5049839;28;20017;-53
2022/12/05 07:25:00;;;;;;;10.18;8.43;;;2.50;99.90;;;;;;5049686;28;20035;-54
2022/12/05 07:27:26;;;;;;;10.32;9.25;;;2.50;99.90;;;;;;5049866;28;20033;-50
2022/12/05 07:29:52;;;;;;;15.02;9.50;;;2.50;99.90;;;;;;5048300;28;20029;-50
2022/12/05 07:32:17;;;;;;;12.50;9.50;;;2.40;99.90;;;;;;5049742;28;20411;-51
2022/12/05 07:34:43;;;;;;;11.13;7.75;;;2.30;99.90;;;;;;5049729;28;20109;-49
2022/12/05 07:37:09;;;;;;;11.85;7.93;;;2.50;99.90;;;;;;5049535;28;20029;-53
2022/12/05 07:39:34;;;;;;;9.73;8.00;;;2.40;99.90;;;;;;5048902;28;20021;-51
2022/12/05 07:42:00;;;;;;;12.23;8.15;;;2.40;99.90;;;;;;5049711;28;20025;-54
2022/12/05 07:44:26;;;;;;;11.55;8.75;;;2.40;99.90;;;;;;5049744;28;20511;-51
2022/12/05 07:46:51;;;;;;;11.18;8.90;;;2.50;99.90;;;;;;5049382;28;20036;-53
2022/12/05 07:49:17;;;;;;;12.15;8.60;;;2.60;99.90;;;;;;5049549;28;20028;-50
2022/12/05 07:51:43;;;;;;;11.57;9.10;;;2.60;99.90;;;;;;5049253;28;20357;-54
2022/12/05 07:54:08;;;;;;;13.68;9.75;;;2.60;99.90;;;;;;5049248;28;20108;-52
2022/12/05 07:56:34;;;;;;;13.77;9.65;;;2.50;99.90;;;;;;5049265;28;20399;-50
2022/12/05 07:59:00;;;;;;;13.15;9.93;;;2.50;99.90;;;;;;5049203;28;20028;-54
2022/12/05 08:01:28;;;;;;;12.52;9.63;;;2.50;99.90;;;;;;5049372;28;20111;-50
2022/12/05 08:03:57;;;;;;;14.18;10.80;;;2.40;99.90;;;;;;5049193;28;20029;-52
2022/12/05 08:06:28;;;;;;;14.27;10.55;;;2.40;99.90;;;;;;5049165;28;20104;-53
2022/12/05 08:08:54;;;;;;;11.45;9.25;;;2.50;99.90;;;;;;5049132;28;20021;-53
2022/12/05 08:11:22;;;;;;;15.02;9.50;;;2.50;99.90;;;;;;5048857;28;20090;-55
2022/12/05 08:13:48;;;;;;;15.27;9.68;;;2.70;99.90;;;;;;5049099;28;20510;-52
2022/12/05 08:16:18;;;;;;;17.33;10.63;;;2.80;99.90;;;;;;5047580;28;20457;-49
2022/12/05 08:18:44;;;;;;;15.20;10.82;;;2.80;99.90;;;;;;5047642;28;20101;-48
2022/12/05 08:21:16;;;;;;;15.98;10.38;;;2.90;99.90;;;;;;5048840;28;20036;-55
2022/12/05 08:23:42;;;;;;;13.90;10.77;;;2.90;99.90;;;;;;5048985;28;20388;-50
2022/12/05 08:26:11;;;;;;;15.98;10.30;;;2.90;99.90;;;;;;5048689;28;20032;-53
2022/12/05 08:28:36;;;;;;;17.92;10.82;;;2.80;99.90;;;;;;5049163;28;20048;-51
2022/12/05 08:31:16;;;;;;;13.32;10.13;;;2.80;99.90;;;;;;5048512;28;20067;-54
2022/12/05 08:33:43;;;;;;;16.08;10.38;;;2.80;99.90;;;;;;5048775;28;20120;-52
2022/12/05 08:36:11;;;;;;;14.90;10.35;;;2.70;99.90;;;;;;5048500;28;20040;-53
2022/12/05 08:38:37;;;;;;;17.10;11.07;;;2.70;99.90;;;;;;5048689;28;20017;-52
2022/12/05 08:41:08;;;;;;;17.08;11.50;;;2.80;99.90;;;;;;5048617;28;20074;-52
2022/12/05 08:43:34;;;;;;;16.10;10.50;;;3.00;99.90;;;;;;5048887;28;20379;-51
2022/12/05 08:46:00;;;;;;;14.48;10.60;;;3.10;99.90;;;;;;5048340;28;20331;-52
2022/12/05 08:48:28;;;;;;;14.30;10.25;;;2.90;99.90;;;;;;5048663;28;20046;-50
2022/12/05 08:50:53;;;;;;;13.02;10.35;;;2.80;99.90;;;;;;5047694;28;20037;-52
2022/12/05 08:53:20;;;;;;;15.75;9.85;;;2.90;99.90;;;;;;5048177;28;20025;-54
2022/12/05 08:55:45;;;;;;;17.08;10.85;;;3.00;99.90;;;;;;5048442;28;20025;-52
2022/12/05 08:58:11;;;;;;;14.15;9.55;;;3.00;99.90;;;;;;5048326;28;20021;-50
2022/12/05 09:00:38;;;;;;;12.90;9.27;;;3.00;99.90;;;;;;5048302;28;20033;-53
2022/12/05 09:03:03;;;;;;;12.90;8.27;;;3.10;99.90;;;;;;5048263;28;20024;-53
2022/12/05 09:05:29;;;;;;;12.52;9.00;;;3.20;99.90;;;;;;5048253;28;20101;-51
2022/12/05 09:07:55;;;;;;;12.25;9.90;;;3.00;99.90;;;;;;5048123;28;20545;-50
2022/12/05 09:10:21;;;;;;;13.43;10.23;;;2.90;99.90;;;;;;5048276;28;20032;-53
2022/12/05 09:12:49;;;;;;;12.23;9.43;;;2.90;99.90;;;;;;5048092;28;20094;-51
2022/12/05 09:15:15;;;;;;;12.68;9.82;;;2.90;99.90;;;;;;5046799;28;20083;-49
2022/12/05 09:17:41;;;;;;;13.55;9.43;;;3.00;99.90;;;;;;5048140;28;20021;-52
2022/12/05 09:20:07;;;;;;;12.65;9.82;;;3.00;99.90;;;;;;5048045;28;20028;-53
2022/12/05 09:22:33;;;;;;;13.13;9.82;;;3.00;99.90;;;;;;5046863;28;20049;-53
2022/12/05 09:24:59;;;;;;;10.10;7.78;;;2.90;99.90;;;;;;5047918;28;20028;-54
2022/12/05 09:27:27;;;;;;;10.25;8.30;;;3.00;99.90;;;;;;5047989;28;20021;-53
2022/12/05 09:29:53;;;;;;;23.05;8.43;;;3.00;99.90;;;;;;5048084;28;20005;-53
2022/12/05 09:32:18;;;;;;;13.45;9.30;;;3.00;99.90;;;;;;5048138;28;20497;-53
2022/12/05 09:34:44;;;;;;;11.30;8.70;;;2.90;99.90;;;;;;5047802;28;20107;-52
2022/12/05 09:37:10;;;;;;;11.55;8.38;;;2.90;99.90;;;;;;5047713;28;20033;-51
2022/12/05 09:39:36;;;;;;;10.30;8.10;;;2.90;99.90;;;;;;5047836;28;20395;-49
2022/12/05 09:42:20;;;;;;;10.27;7.75;;;2.80;99.90;;;;;;5046234;28;20543;-52
2022/12/05 09:44:59;;;;;;;12.40;9.35;;;3.00;99.90;;;;;;5047854;28;20498;-50
2022/12/05 09:47:40;;;;;;;14.80;9.55;;;3.00;99.90;;;;;;5047788;28;20081;-50
2022/12/05 09:50:17;;;;;;;15.95;9.40;;;3.00;99.90;;;;;;5047565;28;20032;-52
2022/12/05 09:52:52;;;;;;;12.88;8.85;;;2.90;99.90;;;;;;5047625;28;20490;-51
2022/12/05 09:55:19;;;;;;;12.27;8.48;;;2.90;99.90;;;;;;5047568;28;20040;-50
2022/12/05 09:57:53;;;;;;;14.93;8.70;;;3.00;99.90;;;;;;5047668;28;20380;-52
2022/12/05 10:00:19;;;;;;;12.00;9.18;;;3.20;99.90;;;;;;5047507;28;20031;-50
2022/12/05 10:03:01;;;;;;;15.88;11.80;;;3.30;99.90;;;;;;5046990;28;20021;-52
2022/12/05 10:05:46;;;;;;;15.52;10.75;;;3.30;99.90;;;;;;5047423;28;20408;-53
2022/12/05 10:08:55;;;;;;;20.33;12.30;;;3.30;99.90;;;;;;5047287;28;20064;-54
2022/12/05 10:11:31;;;;;;;59.92;24.33;;;3.30;99.90;;;;;;5027460;28;20128;-51
2022/12/05 10:14:09;;;;;;;11.57;9.43;;;3.30;99.90;;;;;;5047263;28;20029;-52
2022/12/05 10:16:45;;;;;;;18.52;10.65;;;3.30;99.90;;;;;;5047218;28;20484;-54
2022/12/05 10:19:40;;;;;;;22.65;15.77;;;3.30;99.90;;;;;;5047242;28;20490;-51
2022/12/05 10:22:44;;;;;;;20.90;12.88;;;3.40;99.90;;;;;;5045436;28;20037;-49
2022/12/05 10:25:12;;;;;;;45.90;20.60;;;3.40;99.90;;;;;;5043917;28;20045;-50
2022/12/05 10:27:46;;;;;;;16.58;10.85;;;3.40;99.90;;;;;;5047301;28;20033;-53
2022/12/05 10:30:23;;;;;;;16.73;9.77;;;3.40;99.90;;;;;;5047117;28;20024;-54
2022/12/05 10:32:58;;;;;;;13.35;9.60;;;3.40;99.90;;;;;;5047002;28;20037;-52
2022/12/05 10:35:32;;;;;;;14.98;10.75;;;3.40;99.90;;;;;;5046982;28;20039;-54
2022/12/05 10:38:04;;;;;;;15.43;10.85;;;3.40;99.90;;;;;;5046873;28;20017;-52
2022/12/05 10:40:37;;;;;;;17.60;11.43;;;3.40;99.90;;;;;;5047046;28;20052;-52
2022/12/05 10:43:07;;;;;;;13.00;9.20;;;3.40;99.90;;;;;;5047176;28;20016;-50
2022/12/05 10:45:48;;;;;;;16.60;10.43;;;3.50;99.90;;;;;;5046960;28;20508;-53
2022/12/05 10:48:17;;;;;;;26.20;12.40;;;3.40;99.90;;;;;;5046497;28;20120;-56
2022/12/05 10:50:44;;;;;;;48.05;16.00;;;3.40;99.90;;;;;;5047202;28;20028;-53
2022/12/05 10:53:25;;;;;;;23.83;13.35;;;3.60;99.90;;;;;;5046558;28;20021;-53
2022/12/05 10:55:52;;;;;;;14.52;10.15;;;3.60;99.90;;;;;;5046331;28;20033;-51
2022/12/05 10:58:22;;;;;;;15.43;10.98;;;3.60;99.90;;;;;;5046810;28;20021;-51
2022/12/05 11:00:54;;;;;;;13.65;9.27;;;3.70;99.90;;;;;;5046750;28;20392;-50
2022/12/05 11:03:40;;;;;;;12.48;9.05;;;3.80;99.90;;;;;;5046767;28;20116;-51
2022/12/05 11:06:22;;;;;;;18.83;12.70;;;3.80;99.90;;;;;;5046354;28;20078;-51
2022/12/05 11:08:54;;;;;;;17.23;11.18;;;3.60;99.90;;;;;;5046470;28;20025;-55
2022/12/05 11:11:22;;;;;;;22.08;14.93;;;3.70;99.90;;;;;;5046453;28;20045;-52
2022/12/05 11:13:58;;;;;;;16.98;11.40;;;3.70;99.90;;;;;;5046767;28;20025;-55
2022/12/05 11:16:36;;;;;;;20.58;12.93;;;3.60;99.90;;;;;;5049563;28;20386;-53
2022/12/05 11:19:20;;;;;;;42.22;25.65;;;3.60;99.90;;;;;;5049795;28;20021;-53
2022/12/05 11:21:47;;;;;;;14.52;10.13;;;3.70;99.90;;;;;;5049919;28;20109;-53
2022/12/05 11:24:37;;;;;;;20.15;11.68;;;3.70;99.90;;;;;;5048620;28;20100;-56
2022/12/05 11:27:14;;;;;;;35.63;16.13;;;3.60;99.90;;;;;;5050057;28;20021;-54
2022/12/05 11:29:40;;;;;;;20.33;12.50;;;3.70;99.90;;;;;;5049830;28;20109;-51
2022/12/05 11:32:18;;;;;;;21.58;14.52;;;3.70;99.90;;;;;;5049606;28;20024;-52
2022/12/05 11:35:11;;;;;;;30.73;18.83;;;3.60;99.90;;;;;;5049857;28;20494;-51
2022/12/05 11:37:51;;;;;;;18.30;12.30;;;3.80;99.90;;;;;;5049911;28;20387;-52
2022/12/05 11:40:41;;;;;;;18.80;13.25;;;3.80;99.90;;;;;;5049717;28;20028;-51
2022/12/05 11:43:27;;;;;;;27.15;17.67;;;3.80;99.90;;;;;;5048279;28;20021;-50
2022/12/05 11:46:30;;;;;;;21.83;14.20;;;3.90;99.90;;;;;;5049530;28;20029;-51
2022/12/05 11:49:19;;;;;;;21.08;14.57;;;3.90;99.90;;;;;;5049314;28;20491;-53
2022/12/05 11:51:54;;;;;;;17.30;11.98;;;4.00;99.90;;;;;;5048991;28;20037;-54
2022/12/05 11:54:25;;;;;;;17.25;12.18;;;3.90;99.90;;;;;;5049436;28;20021;-53
2022/12/05 11:56:55;;;;;;;18.60;11.70;;;3.80;99.90;;;;;;5049138;28;20033;-52
2022/12/05 11:59:27;;;;;;;18.00;11.10;;;3.80;99.90;;;;;;5049182;28;20025;-53
2022/12/05 12:02:27;;;;;;;17.40;12.55;;;3.80;99.90;;;;;;5049484;28;20566;-53
2022/12/05 12:05:20;;;;;;;19.70;14.25;;;3.90;99.90;;;;;;5049134;28;20056;-52
2022/12/05 12:07:58;;;;;;;21.48;13.18;;;3.80;99.90;;;;;;5049238;28;20521;-53
2022/12/05 12:10:45;;;;;;;20.98;13.75;;;3.90;99.90;;;;;;5049097;28;20021;-49
2022/12/05 12:13:23;;;;;;;17.05;10.90;;;3.90;99.90;;;;;;5048883;28;20028;-49
2022/12/05 12:15:51;;;;;;;17.67;10.85;;;3.90;99.90;;;;;;5048990;28;20541;-53
2022/12/05 12:18:23;;;;;;;17.25;11.90;;;3.80;99.90;;;;;;5048851;28;20035;-50
2022/12/05 12:20:48;;;;;;;21.08;11.85;;;3.80;99.90;;;;;;5048722;28;20472;-54
2022/12/05 12:23:32;;;;;;;16.63;11.43;;;3.90;99.90;;;;;;5047575;28;20078;-52
2022/12/05 12:26:29;;;;;;;18.67;11.88;;;3.90;99.90;;;;;;5048362;28;20022;-52
2022/12/05 12:29:19;;;;;;;20.33;11.95;;;3.90;99.90;;;;;;5047919;28;20056;-54
2022/12/05 12:31:56;;;;;;;14.85;10.90;;;4.10;99.90;;;;;;5048934;28;20409;-53
2022/12/05 12:34:55;;;;;;;54.17;32.10;;;4.00;99.90;;;;;;5048711;28;20029;-53
2022/12/05 12:37:48;;;;;;;16.63;11.48;;;4.00;99.90;;;;;;5048834;28;20032;-51
2022/12/05 12:40:21;;;;;;;18.08;11.77;;;4.00;99.90;;;;;;5048759;28;20069;-54
2022/12/05 12:42:57;;;;;;;17.33;11.82;;;4.00;99.90;;;;;;5048579;28;20021;-51
2022/12/05 12:45:46;;;;;;;19.55;13.30;;;4.10;99.90;;;;;;5048494;28;20027;-50
2022/12/05 12:48:34;;;;;;;29.23;13.80;;;4.10;99.90;;;;;;5048308;28;20025;-53
2022/12/05 12:51:01;;;;;;;21.23;13.05;;;4.10;99.90;;;;;;5048299;28;20472;-52
2022/12/05 12:53:46;;;;;;;19.70;13.18;;;3.90;99.90;;;;;;5048551;28;20045;-53
2022/12/05 12:56:37;;;;;;;21.92;12.80;;;3.90;99.90;;;;;;5048310;28;20078;-50
2022/12/05 12:59:20;;;;;;;25.35;14.05;;;4.00;99.90;;;;;;5047179;28;20021;-54
2022/12/05 13:02:24;;;;;;;23.73;14.35;;;3.90;99.90;;;;;;5047362;28;20104;-51
2022/12/05 13:05:17;;;;;;;24.60;14.48;;;3.90;99.90;;;;;;5016741;28;20411;-52
2022/12/05 13:07:50;;;;;;;40.03;20.90;;;4.00;99.90;;;;;;5048711;28;20025;-55
2022/12/05 13:10:32;;;;;;;27.33;16.52;;;4.00;99.90;;;;;;5046843;28;20028;-52
2022/12/05 13:12:59;;;;;;;26.65;15.15;;;4.00;99.90;;;;;;5047935;28;20116;-54
2022/12/05 13:15:39;;;;;;;83.97;40.25;;;4.00;99.90;;;;;;5048171;28;20037;-54